Ana Sayfa
METAR-TAF:

METAR-TAF

Havaalanları :

Kit Carson County Airport

Burlington, Colorado, Amerika Birleşik Devletleri

Enlem: 39-14-32N, Boylam: 102-16-58W, yükseklik: 1285 m

Güncel hava durumu gözlemi

Rapor saat 07:53 UTC de 35 dakika önce yapıldı.
Rüzgar kuzeydan 11 kt
Sıcaklık 9°C
Nem 87%
Basınç 1017 hPa
Görüş mesafesi: 16.1 km
4300 ft yükseklikte çok bulutlu

METAR: KITR 250753Z AUTO 35011KT 10SM OVC043 09/07 A3003 RMK AO2 SLP140 T00940072

Saat: 02:28 (08:28 UTC)


TAF: eksik

4.000'den fazla havaalanı için hava durumu gözlemleri ve tahminleri (METAR ve TAF raporları).

Kullanılabilir istasyonlar harita üzerinde sarı ve kırmızı noktalarla gösterilir.

İstasyonun adını görmek için fareyi noktanın üzerinde gezdirin.

Sonrasında hava gözlem ve tahminlerini görmek için tıklayın.

Haritayı değiştirmek için: yaklaştırmak için siyah artı işaretli yeşil düğmeye ve uzaklaştırmak için de eksi işaretli düğmeye hızla tıklayın; bitişik haritalar için yeşil okları kullanın.


METAR-TAF: